Time;durP1;ratioP1;P1;durP2;ratioP2;P2;SDS_P1;SDS_P2;PMS_P1;PMS_P2;Temp;Humidity;BMP_temperature;BMP_pressure;BME280_temperature;BME280_humidity;BME280_pressure;Samples;Min_cycle;Max_cycle;Signal;HPM_P1;HPM_P2
2022/09/22 00:01:22;;;;;;;4.00;2.70;;;;;;;7.75;86.62;100975.14;86059;1297;96672;-60
2022/09/22 00:03:34;;;;;;;5.40;3.40;;;;;;;7.72;86.41;100972.33;86058;1288;88948;-60
2022/09/22 00:05:44;;;;;;;3.30;2.50;;;;;;;7.68;86.52;100967.61;86009;1296;94405;-60
2022/09/22 00:07:54;;;;;;;4.70;3.00;;;;;;;7.63;86.51;100965.97;86048;1298;82036;-60
2022/09/22 00:10:06;;;;;;;4.50;2.60;;;;;;;7.58;86.47;100967.21;86075;1282;82949;-61
2022/09/22 00:12:17;;;;;;;4.20;3.20;;;;;;;7.57;86.49;100961.96;86028;1299;98812;-60
2022/09/22 00:14:28;;;;;;;3.90;2.90;;;;;;;7.53;86.56;100964.08;86036;1290;87588;-59
2022/09/22 00:16:41;;;;;;;4.90;2.90;;;;;;;7.50;86.50;100961.91;85979;1298;94285;-60
2022/09/22 00:18:50;;;;;;;5.00;2.80;;;;;;;7.48;86.63;100966.79;86009;1291;80439;-60
2022/09/22 00:21:20;;;;;;;3.90;2.90;;;;;;;7.44;86.64;100965.71;86063;1290;82844;-60
2022/09/22 00:23:31;;;;;;;4.20;2.50;;;;;;;7.44;86.69;100968.29;85988;1299;96506;-60
2022/09/22 00:25:44;;;;;;;5.60;2.90;;;;;;;7.40;86.71;100966.86;86017;1288;89458;-60
2022/09/22 00:27:53;;;;;;;3.80;2.90;;;;;;;7.37;86.77;100964.95;86019;1291;95109;-60
2022/09/22 00:30:06;;;;;;;6.10;2.90;;;;;;;7.37;86.61;100966.14;86059;1296;81509;-59
2022/09/22 00:32:16;;;;;;;5.10;2.90;;;;;;;7.36;86.69;100963.59;86077;1282;80465;-59
2022/09/22 00:34:27;;;;;;;4.30;3.10;;;;;;;7.34;86.90;100961.73;86084;1296;98017;-59
2022/09/22 00:36:40;;;;;;;3.40;2.70;;;;;;;7.35;86.76;100964.39;86042;1298;89340;-59
2022/09/22 00:38:50;;;;;;;3.80;3.00;;;;;;;7.34;86.88;100965.36;86069;1291;95064;-60
2022/09/22 00:41:07;;;;;;;4.70;3.00;;;;;;;7.37;86.84;100962.34;86111;1297;81233;-59
2022/09/22 00:43:35;;;;;;;3.70;2.50;;;;;;;7.38;86.92;100966.41;86037;1297;81405;-60
2022/09/22 00:45:46;;;;;;;5.00;3.00;;;;;;;7.36;86.98;100965.11;86062;1282;96809;-60
2022/09/22 00:47:56;;;;;;;4.90;3.40;;;;;;;7.40;86.94;100962.23;86082;1290;87289;-59
2022/09/22 00:50:13;;;;;;;5.00;2.80;;;;;;;7.43;87.14;100961.75;85992;1281;94698;-59
2022/09/22 00:52:26;;;;;;;5.10;2.90;;;;;;;7.46;87.11;100959.70;85969;1297;82266;-60
2022/09/22 00:55:15;;;;;;;3.90;2.90;;;;;;;7.50;87.01;100956.36;86022;1297;83272;-60
2022/09/22 00:57:28;;;;;;;4.10;2.80;;;;;;;7.54;87.34;100956.09;86009;1278;98651;-59
2022/09/22 00:59:39;;;;;;;3.70;3.10;;;;;;;7.57;87.43;100959.20;86014;1295;88358;-58
2022/09/22 01:01:49;;;;;;;4.80;2.80;;;;;;;7.57;87.38;100951.35;86021;1296;95333;-60
2022/09/22 01:03:59;;;;;;;3.90;2.90;;;;;;;7.57;87.31;100952.63;86027;1297;82716;-59
2022/09/22 01:06:17;;;;;;;3.40;2.80;;;;;;;7.58;87.41;100959.89;85998;1298;81784;-60
2022/09/22 01:08:28;;;;;;;4.30;2.70;;;;;;;7.63;87.57;100964.20;86014;1291;98751;-59
2022/09/22 01:10:37;;;;;;;6.40;2.70;;;;;;;7.62;87.57;100963.40;86022;1288;86078;-60
2022/09/22 01:13:01;;;;;;;4.60;2.90;;;;;;;7.63;87.47;100963.48;86064;1291;95228;-58
2022/09/22 01:15:32;;;;;;;4.80;2.80;;;;;;;7.60;87.50;100961.23;86027;1285;82137;-58
2022/09/22 01:17:56;;;;;;;4.90;3.30;;;;;;;7.56;87.52;100958.59;86078;1298;81732;-60
2022/09/22 01:21:09;;;;;;;5.00;3.60;;;;;;;7.54;87.47;100957.70;86068;1298;99315;-59
2022/09/22 01:24:03;;;;;;;6.20;3.50;;;;;;;7.54;87.38;100961.90;86010;1290;87743;-59
2022/09/22 01:27:05;;;;;;;5.50;3.60;;;;;;;7.52;87.46;100963.11;85955;1297;95512;-60
2022/09/22 01:29:51;;;;;;;3.20;2.60;;;;;;;7.51;87.52;100967.79;86006;1280;81079;-60
2022/09/22 01:32:13;;;;;;;5.00;3.00;;;;;;;7.50;87.50;100967.28;86006;1281;81687;-58
2022/09/22 01:34:30;;;;;;;3.50;2.70;;;;;;;7.50;87.42;100970.56;86039;1293;97532;-58
2022/09/22 01:36:51;;;;;;;3.10;2.50;;;;;;;7.46;87.37;100966.08;86048;1281;89070;-59
2022/09/22 01:39:12;;;;;;;5.80;2.90;;;;;;;7.43;87.52;100970.13;86001;1281;94190;-60
2022/09/22 01:41:41;;;;;;;4.10;2.90;;;;;;;7.41;87.41;100971.04;86026;1291;82238;-60
2022/09/22 01:43:57;;;;;;;4.60;2.90;;;;;;;7.40;87.43;100966.36;85976;1281;82903;-59
2022/09/22 01:46:13;;;;;;;3.90;3.00;;;;;;;7.39;87.48;100967.39;86024;1291;98355;-60
2022/09/22 01:48:29;;;;;;;4.20;2.80;;;;;;;7.41;87.44;100970.40;86047;1298;86725;-60
2022/09/22 01:50:44;;;;;;;4.30;2.80;;;;;;;7.43;87.47;100969.84;85939;1293;95343;-60
2022/09/22 01:52:54;;;;;;;5.60;3.30;;;;;;;7.45;87.54;100970.33;86022;1281;82359;-59
2022/09/22 01:55:11;;;;;;;5.10;2.90;;;;;;;7.46;87.52;100966.95;86045;1290;82281;-60
2022/09/22 01:57:30;;;;;;;5.10;3.10;;;;;;;7.49;87.46;100968.31;86093;1296;99110;-60
2022/09/22 01:59:43;;;;;;;3.60;2.90;;;;;;;7.51;87.72;100969.52;86087;1290;87237;-60
2022/09/22 02:01:58;;;;;;;4.20;2.90;;;;;;;7.57;87.96;100972.98;86055;1297;95210;-59
2022/09/22 02:04:15;;;;;;;5.30;3.00;;;;;;;7.61;87.93;100975.16;86067;1296;82066;-60
2022/09/22 02:06:31;;;;;;;4.80;2.70;;;;;;;7.65;88.08;100975.23;86054;1299;82637;-59
2022/09/22 02:08:45;;;;;;;4.60;2.80;;;;;;;7.75;88.11;100979.11;86058;1297;98898;-60
2022/09/22 02:10:57;;;;;;;4.00;2.70;;;;;;;7.80;88.23;100976.28;86069;1290;86808;-60
2022/09/22 02:13:07;;;;;;;6.10;3.40;;;;;;;7.87;88.39;100974.79;86068;1279;95682;-58
2022/09/22 02:17:46;;;;;;;4.50;3.10;;;;;;;7.99;88.57;100972.11;86046;1292;82299;-60
2022/09/22 02:19:58;;;;;;;5.40;3.00;;;;;;;8.03;88.39;100966.29;86011;1297;98913;-59
2022/09/22 02:22:10;;;;;;;5.70;3.20;;;;;;;8.06;88.46;100969.33;86067;1298;87959;-59
2022/09/22 02:24:34;;;;;;;6.10;3.10;;;;;;;8.11;88.57;100972.29;86066;1297;95376;-60
2022/09/22 02:26:44;;;;;;;5.60;3.60;;;;;;;8.15;88.71;100968.20;86071;1297;82049;-60
2022/09/22 02:28:58;;;;;;;5.10;4.00;;;;;;;8.20;88.82;100965.73;86046;1282;82402;-59
2022/09/22 02:31:10;;;;;;;5.80;3.50;;;;;;;8.23;88.86;100964.54;86061;1296;98587;-59
2022/09/22 02:33:23;;;;;;;5.50;3.60;;;;;;;8.26;88.94;100964.36;86037;1297;88407;-60
2022/09/22 02:35:40;;;;;;;5.10;3.30;;;;;;;8.34;89.12;100965.38;85924;1288;93049;-59
2022/09/22 02:38:02;;;;;;;6.40;4.30;;;;;;;8.42;89.08;100965.21;85998;1274;80585;-60
2022/09/22 02:40:20;;;;;;;6.80;3.90;;;;;;;8.46;89.10;100967.38;85960;1298;83010;-60
2022/09/22 02:42:38;;;;;;;3.90;3.40;;;;;;;8.48;89.19;100970.36;86047;1296;96633;-58
2022/09/22 02:44:55;;;;;;;6.00;3.90;;;;;;;8.51;89.36;100972.52;86031;1283;86360;-59
2022/09/22 02:47:13;;;;;;;5.30;3.80;;;;;;;8.55;89.27;100971.92;86124;1291;95711;-58
2022/09/22 02:49:24;;;;;;;6.10;4.10;;;;;;;8.60;89.23;100971.06;85986;1293;82313;-59
2022/09/22 02:51:35;;;;;;;4.90;3.70;;;;;;;8.67;89.27;100968.88;86058;1293;82556;-60
2022/09/22 02:53:46;;;;;;;6.10;4.60;;;;;;;8.73;89.31;100971.45;86070;1298;97612;-60
2022/09/22 02:55:56;;;;;;;4.90;4.40;;;;;;;8.79;89.27;100968.01;86093;1297;88091;-60
2022/09/22 02:58:05;;;;;;;4.80;3.90;;;;;;;8.85;89.28;100965.63;86072;1297;94922;-58
2022/09/22 03:00:16;;;;;;;5.50;4.80;;;;;;;8.86;89.24;100966.04;86065;1297;82358;-58
2022/09/22 03:02:25;;;;;;;6.70;4.40;;;;;;;8.87;89.25;100969.58;86085;1298;83368;-61
2022/09/22 03:04:36;;;;;;;6.30;4.40;;;;;;;8.91;89.20;100972.65;86027;1297;98842;-60
2022/09/22 03:06:46;;;;;;;6.30;4.70;;;;;;;8.97;89.21;100971.34;86083;1290;89135;-59
2022/09/22 03:08:57;;;;;;;7.60;5.40;;;;;;;9.02;89.20;100969.37;86033;1291;95057;-59
2022/09/22 03:11:07;;;;;;;7.30;5.40;;;;;;;9.06;89.24;100970.59;85993;1290;81043;-59
2022/09/22 03:13:18;;;;;;;6.40;5.30;;;;;;;9.10;89.29;100976.46;86046;1282;81972;-59
2022/09/22 03:15:28;;;;;;;6.90;5.80;;;;;;;9.12;89.22;100974.17;86014;1296;99339;-58
2022/09/22 03:17:38;;;;;;;10.40;6.10;;;;;;;9.13;89.28;100972.50;86016;1297;87300;-58
2022/09/22 03:19:49;;;;;;;7.70;6.20;;;;;;;9.15;89.19;100970.67;85997;1282;92601;-58
2022/09/22 03:21:57;;;;;;;6.50;5.90;;;;;;;9.11;89.30;100963.91;85982;1291;80451;-60
2022/09/22 03:24:10;;;;;;;7.20;6.10;;;;;;;9.10;89.45;100966.83;85943;1281;82016;-59
2022/09/22 03:26:21;;;;;;;7.00;5.90;;;;;;;9.13;89.47;100964.88;85959;1299;98638;-60
2022/09/22 03:28:34;;;;;;;7.70;6.30;;;;;;;9.17;89.50;100967.77;85989;1281;88097;-60
2022/09/22 03:30:43;;;;;;;9.10;6.80;;;;;;;9.20;89.46;100963.23;86031;1290;94519;-60
2022/09/22 03:32:52;;;;;;;7.70;6.30;;;;;;;9.23;89.44;100961.69;86057;1290;81673;-60
2022/09/22 03:35:00;;;;;;;8.20;6.60;;;;;;;9.25;89.39;100964.36;86053;1290;82888;-60
2022/09/22 03:37:13;;;;;;;9.40;7.20;;;;;;;9.26;89.43;100964.23;86066;1297;97598;-60
2022/09/22 03:39:22;;;;;;;9.30;7.20;;;;;;;9.30;89.42;100964.83;85654;1296;536887;-60
2022/09/22 03:41:32;;;;;;;9.10;6.40;;;;;;;9.34;89.40;100962.39;86072;1296;95218;-59
2022/09/22 03:43:40;;;;;;;10.90;7.20;;;;;;;9.32;89.40;100965.38;86047;1281;81194;-58
2022/09/22 03:45:55;;;;;;;8.30;7.10;;;;;;;9.30;89.47;100962.48;86080;1297;82517;-58
2022/09/22 03:48:07;;;;;;;8.10;6.30;;;;;;;9.37;89.40;100966.21;86050;1298;99326;-59
2022/09/22 03:50:19;;;;;;;7.60;6.80;;;;;;;9.38;89.39;100964.13;86042;1281;88123;-58
2022/09/22 03:52:27;;;;;;;8.20;6.50;;;;;;;9.39;89.46;100966.93;86039;1278;95442;-59
2022/09/22 03:54:38;;;;;;;7.60;6.00;;;;;;;9.40;89.48;100964.13;86033;1290;81889;-60
2022/09/22 03:56:47;;;;;;;8.10;6.30;;;;;;;9.43;89.47;100966.45;86050;1290;82543;-60
2022/09/22 03:58:56;;;;;;;6.50;5.90;;;;;;;9.42;89.48;100970.20;85979;1298;98458;-59
2022/09/22 04:01:05;;;;;;;7.00;6.30;;;;;;;9.39;89.53;100972.33;86017;1274;87705;-59
2022/09/22 04:03:14;;;;;;;7.20;6.40;;;;;;;9.37;89.55;100973.37;86025;1282;95320;-58
2022/09/22 04:05:23;;;;;;;6.70;5.90;;;;;;;9.39;89.51;100974.85;85997;1298;80586;-59
2022/09/22 04:07:32;;;;;;;7.40;6.60;;;;;;;9.38;89.50;100978.16;86025;1290;83162;-59
2022/09/22 04:09:41;;;;;;;8.10;6.90;;;;;;;9.39;89.52;100977.38;86001;1291;98144;-60
2022/09/22 04:11:50;;;;;;;6.70;6.00;;;;;;;9.41;89.44;100975.70;86034;1290;88747;-59
2022/09/22 04:14:00;;;;;;;9.10;5.70;;;;;;;9.41;89.56;100976.39;86017;1298;94125;-59
2022/09/22 04:16:10;;;;;;;9.00;5.90;;;;;;;9.41;89.60;100973.43;86079;1291;82812;-58
2022/09/22 04:18:19;;;;;;;6.30;5.70;;;;;;;9.43;89.56;100976.30;86068;1292;80579;-59
2022/09/22 04:20:29;;;;;;;6.70;5.90;;;;;;;9.49;89.36;100973.34;86021;1296;99001;-59
2022/09/22 04:22:39;;;;;;;8.20;6.00;;;;;;;9.50;89.36;100977.89;86087;1292;87770;-59
2022/09/22 04:24:48;;;;;;;6.10;5.50;;;;;;;9.50;89.35;100976.39;85997;1293;96647;-58
2022/09/22 04:26:57;;;;;;;7.20;6.20;;;;;;;9.50;89.42;100976.80;86017;1277;83245;-60
2022/09/22 04:29:06;;;;;;;6.60;6.00;;;;;;;9.52;89.24;100980.79;86083;1290;83321;-58
2022/09/22 04:31:19;;;;;;;6.90;5.80;;;;;;;9.51;89.45;100981.19;86102;1278;98127;-58
2022/09/22 04:33:27;;;;;;;;;;;;;;;9.49;89.51;100980.92;86073;1282;88201;-60
2022/09/22 04:35:35;;;;;;;7.00;6.30;;;;;;;9.51;89.59;100980.15;86013;1274;95372;-60
2022/09/22 04:37:45;;;;;;;6.80;6.00;;;;;;;9.54;89.56;100983.83;85992;1281;80652;-58
2022/09/22 04:39:58;;;;;;;7.90;6.00;;;;;;;9.54;89.50;100984.13;86016;1288;81610;-58
2022/09/22 04:42:09;;;;;;;8.80;6.10;;;;;;;9.56;89.43;100984.59;86032;1290;96083;-59
2022/09/22 04:44:17;;;;;;;6.80;6.00;;;;;;;9.56;89.57;100985.21;86081;1297;86965;-60
2022/09/22 04:46:27;;;;;;;7.60;6.10;;;;;;;9.61;89.47;100987.30;86043;1291;94862;-59
2022/09/22 04:48:36;;;;;;;7.80;5.80;;;;;;;9.60;89.46;100986.66;85983;1290;80623;-59
2022/09/22 04:50:45;;;;;;;6.80;5.80;;;;;;;9.57;89.52;100992.96;86027;1282;81148;-59
2022/09/22 04:52:57;;;;;;;8.00;6.00;;;;;;;9.59;89.57;100989.02;86034;1296;98082;-58
2022/09/22 04:55:10;;;;;;;6.50;5.90;;;;;;;9.60;89.64;100988.67;86009;1274;87961;-58
2022/09/22 04:57:18;;;;;;;6.60;5.90;;;;;;;9.65;89.59;100989.18;86002;1275;94585;-59
2022/09/22 04:59:29;;;;;;;7.70;5.60;;;;;;;9.67;89.60;100991.14;85984;1291;81914;-59
2022/09/22 05:01:39;;;;;;;7.30;5.80;;;;;;;9.68;89.63;100988.27;86025;1292;82729;-59
2022/09/22 05:03:47;;;;;;;7.90;5.80;;;;;;;9.71;89.61;100982.97;86050;1290;99217;-60
2022/09/22 05:05:56;;;;;;;7.60;6.80;;;;;;;9.72;89.60;100987.85;86015;1290;87529;-59
2022/09/22 05:08:06;;;;;;;8.70;6.90;;;;;;;9.72;89.66;100988.20;86038;1284;94867;-59
2022/09/22 05:10:16;;;;;;;6.90;6.20;;;;;;;9.75;89.70;100984.66;86017;1297;79588;-59
2022/09/22 05:12:25;;;;;;;7.10;6.40;;;;;;;9.77;89.65;100991.78;86075;1290;82001;-60
2022/09/22 05:14:35;;;;;;;7.00;6.30;;;;;;;9.79;89.55;100985.39;85983;1291;98937;-60
2022/09/22 05:16:43;;;;;;;7.30;6.40;;;;;;;9.83;89.55;100988.41;86101;1289;89040;-60
2022/09/22 05:18:55;;;;;;;6.20;5.60;;;;;;;9.88;89.43;100988.96;86048;1297;95077;-60
2022/09/22 05:21:08;;;;;;;6.80;6.00;;;;;;;9.92;89.50;100993.72;85986;1282;81419;-59
2022/09/22 05:23:18;;;;;;;6.80;6.10;;;;;;;9.94;89.52;100993.27;86024;1297;81733;-60
2022/09/22 05:25:27;;;;;;;8.60;6.90;;;;;;;9.97;89.61;100995.67;85962;1291;98669;-59
2022/09/22 05:27:37;;;;;;;6.60;5.70;;;;;;;9.91;89.57;100997.36;86064;1290;87956;-57
2022/09/22 05:29:46;;;;;;;6.60;5.90;;;;;;;9.92;89.59;100999.45;85991;1297;93999;-58
2022/09/22 05:31:55;;;;;;;6.20;5.50;;;;;;;9.97;89.54;100997.83;85981;1299;81867;-59
2022/09/22 05:34:05;;;;;;;6.80;5.90;;;;;;;9.95;89.52;101001.84;86047;1291;81251;-60
2022/09/22 05:36:13;;;;;;;8.20;6.40;;;;;;;9.99;89.56;101000.62;85997;1281;98548;-61
2022/09/22 05:38:29;;;;;;;7.90;5.80;;;;;;;10.04;89.50;101003.77;86012;1290;88767;-59
2022/09/22 05:40:39;;;;;;;9.40;5.90;;;;;;;10.08;89.43;101008.10;85981;1290;94168;-58
2022/09/22 05:42:53;;;;;;;6.70;6.00;;;;;;;10.11;89.50;101006.86;86020;1290;82181;-59
2022/09/22 05:45:02;;;;;;;8.60;6.20;;;;;;;10.09;89.59;101006.55;86056;1297;82818;-60
2022/09/22 05:47:11;;;;;;;9.00;6.30;;;;;;;10.07;89.62;101006.35;86049;1280;99342;-59
2022/09/22 05:49:19;;;;;;;6.90;6.20;;;;;;;10.06;89.60;101006.65;86004;1289;89117;-59
2022/09/22 05:51:28;;;;;;;7.70;5.80;;;;;;;10.12;89.57;101006.92;86018;1297;95129;-59
2022/09/22 05:53:38;;;;;;;8.80;6.10;;;;;;;10.18;89.58;101010.40;86022;1281;81279;-59
2022/09/22 05:55:47;;;;;;;7.60;5.90;;;;;;;10.22;89.55;101013.95;86035;1290;81732;-60
2022/09/22 05:58:02;;;;;;;8.30;6.40;;;;;;;10.25;89.53;101012.19;86077;1297;97262;-59
2022/09/22 06:00:14;;;;;;;7.00;6.30;;;;;;;10.30;89.42;101012.98;86075;1296;87997;-59
2022/09/22 06:02:25;;;;;;;8.10;6.20;;;;;;;10.28;89.39;101013.02;86083;1297;95848;-58
2022/09/22 06:04:34;;;;;;;8.00;6.00;;;;;;;10.30;89.56;101009.98;86083;1290;81462;-60
2022/09/22 06:06:43;;;;;;;7.80;5.90;;;;;;;10.34;89.63;101012.40;86106;1281;83382;-60
2022/09/22 06:08:51;;;;;;;8.80;6.40;;;;;;;10.36;89.51;101009.50;86020;1296;98596;-60
2022/09/22 06:11:00;;;;;;;8.50;6.00;;;;;;;10.35;89.41;101010.27;86060;1296;87419;-60
2022/09/22 06:13:11;;;;;;;6.80;6.00;;;;;;;10.42;89.40;101009.88;86046;1297;94908;-58
2022/09/22 06:15:20;;;;;;;7.00;5.80;;;;;;;10.46;89.45;101011.56;85994;1293;81239;-60
2022/09/22 06:17:30;;;;;;;8.40;7.70;;;;;;;10.52;89.38;101009.17;86002;1281;82169;-60
2022/09/22 06:19:49;;;;;;;8.90;6.30;;;;;;;10.61;89.29;101012.48;85999;1290;99385;-58
2022/09/22 06:22:06;;;;;;;7.40;6.10;;;;;;;10.70;89.28;101013.13;86061;1291;87221;-57
2022/09/22 06:24:22;;;;;;;6.60;5.90;;;;;;;10.75;89.19;101011.98;86018;1291;94527;-57
2022/09/22 06:26:34;;;;;;;7.80;6.00;;;;;;;10.68;89.19;101013.30;85947;1299;79688;-60
2022/09/22 06:28:43;;;;;;;7.90;5.60;;;;;;;10.75;89.19;101015.81;86008;1281;83144;-59
2022/09/22 06:30:51;;;;;;;6.20;5.60;;;;;;;10.78;89.24;101013.64;86028;1274;98478;-60
2022/09/22 06:33:06;;;;;;;6.60;5.80;;;;;;;10.88;89.35;101009.02;86034;1290;88739;-58
2022/09/22 06:35:19;;;;;;;10.10;6.50;;;;;;;11.02;89.27;101008.77;85972;1291;94688;-59
2022/09/22 06:37:29;;;;;;;8.70;6.20;;;;;;;11.03;89.19;101009.66;86000;1299;80068;-58
2022/09/22 06:39:37;;;;;;;6.70;5.90;;;;;;;11.03;89.26;101012.70;86043;1282;81984;-59
2022/09/22 06:41:48;;;;;;;6.40;5.50;;;;;;;11.12;89.27;101012.34;86043;1290;99727;-59
2022/09/22 06:43:58;;;;;;;6.90;5.40;;;;;;;11.17;89.36;101011.91;86098;1290;89507;-59
2022/09/22 06:46:10;;;;;;;6.30;5.10;;;;;;;11.23;89.40;101018.05;86115;1290;94887;-59
2022/09/22 06:48:22;;;;;;;5.50;5.00;;;;;;;11.37;89.04;101016.24;86127;1290;81450;-61
2022/09/22 06:50:32;;;;;;;6.20;4.90;;;;;;;11.46;88.73;101017.34;86110;1282;82375;-59
2022/09/22 06:52:41;;;;;;;6.80;4.50;;;;;;;11.44;88.72;101021.70;86025;1291;98785;-58
2022/09/22 06:54:52;;;;;;;6.10;5.30;;;;;;;11.43;88.90;101025.99;86036;1292;88783;-59
2022/09/22 06:57:01;;;;;;;7.30;5.50;;;;;;;11.47;88.76;101021.67;86072;1281;95226;-60
2022/09/22 06:59:12;;;;;;;8.10;5.10;;;;;;;11.57;88.50;101020.86;86036;1297;78771;-60
2022/09/22 07:01:23;;;;;;;11.80;5.40;;;;;;;11.74;88.40;101021.00;86041;1296;83311;-60
2022/09/22 07:03:33;;;;;;;6.40;4.90;;;;;;;11.74;88.22;101019.25;86033;1290;97081;-59
2022/09/22 07:05:53;;;;;;;5.60;5.00;;;;;;;11.79;88.22;101022.80;86015;1297;89526;-60
2022/09/22 07:08:07;;;;;;;6.90;4.80;;;;;;;11.86;88.13;101025.88;86069;1297;95399;-60
2022/09/22 07:10:19;;;;;;;6.70;5.30;;;;;;;12.01;87.91;101022.90;85980;1290;81720;-59
2022/09/22 07:12:28;;;;;;;5.10;4.60;;;;;;;12.16;87.99;101026.20;86020;1290;83041;-58
2022/09/22 07:14:37;;;;;;;5.30;4.70;;;;;;;12.18;87.93;101025.61;85994;1281;98100;-59
2022/09/22 07:16:47;;;;;;;5.10;4.00;;;;;;;12.25;87.91;101024.38;85997;1299;90809;-59
2022/09/22 07:18:58;;;;;;;5.10;4.60;;;;;;;12.29;87.80;101027.36;86066;1297;95199;-59
2022/09/22 07:21:11;;;;;;;5.60;4.90;;;;;;;12.41;87.58;101027.45;86045;1290;81764;-60
2022/09/22 07:23:21;;;;;;;5.90;4.60;;;;;;;12.36;87.50;101027.21;86109;1292;82127;-59
2022/09/22 07:25:32;;;;;;;5.30;4.60;;;;;;;12.47;87.33;101028.33;86030;1290;98712;-60
2022/09/22 07:27:41;;;;;;;6.70;4.80;;;;;;;12.44;87.15;101025.89;86085;1290;87974;-60
2022/09/22 07:29:50;;;;;;;5.70;5.00;;;;;;;12.54;87.16;101030.36;86136;1288;93635;-60
2022/09/22 07:32:01;;;;;;;6.60;4.70;;;;;;;12.67;87.12;101029.66;86119;1297;79837;-59
2022/09/22 07:34:13;;;;;;;5.10;7.80;;;;;;;12.74;86.74;101029.92;86064;1290;81561;-60
2022/09/22 07:36:26;;;;;;;5.50;4.80;;;;;;;12.84;86.78;101031.75;86061;1292;98640;-60
2022/09/22 07:38:35;;;;;;;6.40;4.50;;;;;;;13.12;86.55;101033.45;86055;1290;89035;-59
2022/09/22 07:40:58;;;;;;;5.70;4.40;;;;;;;13.30;86.15;101031.61;86051;1296;94962;-59
2022/09/22 07:43:08;;;;;;;5.30;4.30;;;;;;;13.36;85.93;101033.99;85991;1291;80775;-60
2022/09/22 07:45:20;;;;;;;5.80;4.30;;;;;;;13.63;85.85;101029.46;85960;1297;80447;-60
2022/09/22 07:49:55;;;;;;;4.20;3.80;;;;;;;14.25;85.39;101028.55;86052;1282;87680;-60
2022/09/22 07:52:04;;;;;;;5.10;4.20;;;;;;;14.19;85.29;101025.76;85999;1297;94916;-60
2022/09/22 07:54:13;;;;;;;5.00;4.30;;;;;;;14.34;85.09;101024.49;86007;1290;79750;-60
2022/09/22 07:56:26;;;;;;;5.00;4.50;;;;;;;14.46;84.42;101027.39;86013;1274;82608;-60
2022/09/22 07:58:36;;;;;;;5.10;4.50;;;;;;;14.34;83.97;101024.24;86009;1290;98599;-60
2022/09/22 08:00:45;;;;;;;4.90;4.50;;;;;;;14.34;84.02;101024.51;85990;1290;88155;-60
2022/09/22 08:03:00;;;;;;;6.10;5.20;;;;;;;14.44;83.74;101021.94;86007;1281;95289;-59
2022/09/22 08:05:15;;;;;;;5.40;4.90;;;;;;;14.58;83.29;101026.73;86022;1297;79956;-59
2022/09/22 08:07:23;;;;;;;5.50;5.00;;;;;;;14.81;82.93;101028.98;86080;1297;83642;-60
2022/09/22 08:09:35;;;;;;;5.90;5.30;;;;;;;14.83;82.78;101029.08;86050;1297;98096;-61
2022/09/22 08:11:47;;;;;;;5.60;5.00;;;;;;;14.83;82.53;101028.36;86073;1297;88018;-59
2022/09/22 08:13:58;;;;;;;6.20;5.20;;;;;;;14.92;82.51;101022.05;86028;1297;94999;-61
2022/09/22 08:16:09;;;;;;;5.60;4.40;;;;;;;15.25;82.15;101017.27;86045;1290;80920;-59
2022/09/22 08:18:23;;;;;;;5.20;4.50;;;;;;;15.65;82.28;101023.15;86087;1297;80346;-59
2022/09/22 08:20:32;;;;;;;5.80;5.00;;;;;;;15.79;81.75;101021.44;86109;1294;98564;-60
2022/09/22 08:22:42;;;;;;;5.50;4.70;;;;;;;16.00;81.51;101020.80;86077;1290;87841;-61
2022/09/22 08:24:50;;;;;;;5.80;5.00;;;;;;;16.10;81.10;101021.51;86068;1290;94704;-60
2022/09/22 08:26:59;;;;;;;5.30;4.80;;;;;;;16.55;81.19;101019.15;86039;1290;78993;-60
2022/09/22 08:29:14;;;;;;;4.80;4.40;;;;;;;17.13;80.77;101025.77;85998;1291;82743;-60
2022/09/22 08:31:29;;;;;;;4.80;4.30;;;;;;;17.69;79.74;101022.93;86092;1282;96010;-59
2022/09/22 08:33:42;;;;;;;5.40;4.20;;;;;;;17.99;79.03;101020.48;86044;1290;87671;-61
2022/09/22 08:36:02;;;;;;;4.50;4.10;;;;;;;18.12;78.25;101024.80;86009;1285;94214;-61
2022/09/22 08:38:14;;;;;;;3.90;3.50;;;;;;;18.23;77.67;101021.85;86020;1290;79949;-60
2022/09/22 08:40:25;;;;;;;4.00;3.50;;;;;;;18.29;76.68;101021.36;86039;1291;83004;-61
2022/09/22 08:42:35;;;;;;;4.70;3.50;;;;;;;18.41;76.30;101019.83;85949;1299;98694;-60
2022/09/22 08:44:55;;;;;;;4.70;3.90;;;;;;;18.22;76.38;101022.19;86022;1281;87731;-62
2022/09/22 08:47:05;;;;;;;4.40;3.40;;;;;;;18.64;76.13;101016.52;85989;1284;95623;-59
2022/09/22 08:51:59;;;;;;;3.90;3.20;;;;;;;19.60;73.92;101019.48;86047;1290;84740;-61
2022/09/22 08:54:11;;;;;;;6.00;3.30;;;;;;;19.73;73.12;101022.19;85937;1285;100521;-60
2022/09/22 08:56:42;;;;;;;4.30;3.40;;;;;;;19.94;72.95;101017.67;85977;1296;89022;-61
2022/09/22 08:59:00;;;;;;;4.00;3.00;;;;;;;20.38;72.38;101015.90;86020;1291;95243;-60
2022/09/22 09:01:29;;;;;;;2.80;2.50;;;;;;;20.64;71.54;101016.27;86026;1290;79803;-60
2022/09/22 09:04:02;;;;;;;3.10;2.80;;;;;;;20.73;70.17;101013.44;86089;1290;83387;-60
2022/09/22 09:06:19;;;;;;;4.70;2.50;;;;;;;20.54;69.57;101009.30;86059;1291;99004;-60
2022/09/22 09:09:11;;;;;;;3.90;3.00;;;;;;;20.52;68.88;101007.29;86063;1284;88528;-60
2022/09/22 09:11:42;;;;;;;3.00;2.50;;;;;;;20.27;67.57;101008.14;85901;1293;97068;-60
2022/09/22 09:14:12;;;;;;;2.60;2.20;;;;;;;19.93;67.66;101007.44;85982;1297;77789;-61
2022/09/22 09:16:42;;;;;;;3.10;2.40;;;;;;;20.52;67.30;101004.48;86032;1290;82933;-61
2022/09/22 09:19:00;;;;;;;3.20;2.20;;;;;;;21.02;66.67;101000.34;86024;1291;98450;-60
2022/09/22 09:21:14;;;;;;;2.50;2.20;;;;;;;20.95;65.33;100996.52;86043;1290;90029;-60
2022/09/22 09:23:33;;;;;;;2.60;2.20;;;;;;;20.47;64.87;100992.34;86009;1290;93607;-59
2022/09/22 09:25:44;;;;;;;4.70;2.60;;;;;;;20.55;64.57;100992.02;86011;1291;79167;-59
2022/09/22 09:28:02;;;;;;;5.60;2.30;;;;;;;21.42;65.07;100993.59;86086;1290;81953;-60
2022/09/22 09:30:18;;;;;;;3.60;2.10;;;;;;;21.67;64.15;100985.96;86033;1297;98519;-60
2022/09/22 09:32:42;;;;;;;3.90;2.40;;;;;;;21.30;63.74;100992.96;86041;1290;88772;-61
2022/09/22 09:34:51;;;;;;;2.50;2.10;;;;;;;21.31;63.46;100987.05;86021;1288;94234;-61
2022/09/22 09:37:12;;;;;;;3.50;2.40;;;;;;;21.11;62.48;100988.44;86017;1290;80204;-60
2022/09/22 09:39:30;;;;;;;2.00;1.80;;;;;;;20.22;62.12;100989.25;86005;1297;82605;-60
2022/09/22 09:41:40;;;;;;;2.40;2.00;;;;;;;19.49;62.07;100989.17;86034;1297;97253;-60
2022/09/22 09:43:51;;;;;;;2.10;1.90;;;;;;;18.92;62.17;100990.02;86054;1290;87638;-59
2022/09/22 09:46:20;;;;;;;2.40;2.00;;;;;;;18.49;62.48;100988.52;86027;1291;95234;-59
2022/09/22 09:48:40;;;;;;;2.50;2.10;;;;;;;18.30;62.70;100990.34;86020;1290;80578;-59
2022/09/22 09:50:49;;;;;;;3.60;2.60;;;;;;;18.08;63.15;100986.13;86037;1290;82747;-58
2022/09/22 09:52:59;;;;;;;2.60;2.30;;;;;;;18.36;63.64;100984.40;86047;1291;98906;-60
2022/09/22 09:55:24;;;;;;;4.50;2.70;;;;;;;18.60;62.90;100979.69;86050;1297;88972;-60
2022/09/22 09:57:33;;;;;;;3.00;2.30;;;;;;;18.65;63.08;100980.73;86015;1297;94913;-60
2022/09/22 10:02:16;;;;;;;2.90;1.90;;;;;;;18.77;62.42;100980.27;86004;1297;82315;-60
2022/09/22 10:04:37;;;;;;;1.80;1.60;;;;;;;18.60;62.01;100982.70;86026;1297;98738;-60
2022/09/22 10:06:47;;;;;;;2.90;1.70;;;;;;;18.17;61.40;100987.27;86044;1297;87083;-59
2022/09/22 10:08:59;;;;;;;3.20;1.80;;;;;;;17.89;61.72;100983.73;86007;1297;95357;-59
2022/09/22 10:11:11;;;;;;;2.20;1.70;;;;;;;17.65;62.25;100985.67;86026;1290;76966;-59
2022/09/22 10:13:30;;;;;;;2.00;1.70;;;;;;;17.66;62.43;100978.73;86020;1290;81803;-59
2022/09/22 10:15:42;;;;;;;2.90;2.10;;;;;;;17.61;62.88;100979.69;86056;1290;97663;-58
2022/09/22 10:17:51;;;;;;;2.50;1.90;;;;;;;17.41;62.94;100984.13;86075;1281;88947;-60
2022/09/22 10:20:25;;;;;;;2.80;1.80;;;;;;;17.41;63.06;100989.71;85997;1297;94948;-61
2022/09/22 10:22:34;;;;;;;2.90;1.90;;;;;;;17.17;63.39;100989.02;86039;1291;80756;-60
2022/09/22 10:24:54;;;;;;;2.40;1.80;;;;;;;17.02;63.58;100986.64;85996;1297;81961;-60
2022/09/22 10:27:04;;;;;;;2.30;1.90;;;;;;;16.96;64.00;100990.92;85996;1292;99327;-62
2022/09/22 10:29:19;;;;;;;2.70;1.90;;;;;;;16.97;64.17;100992.63;86051;1290;88387;-60
2022/09/22 10:31:30;;;;;;;2.00;1.60;;;;;;;16.96;64.08;100987.10;86040;1290;93544;-60
2022/09/22 10:33:55;;;;;;;2.90;2.20;;;;;;;16.81;64.24;100987.27;86007;1297;79748;-60
2022/09/22 10:36:10;;;;;;;2.70;1.80;;;;;;;16.83;63.89;100987.10;86044;1297;81356;-60